This is the latest recevied weather packets stored in our database for station/object N7WSS. If no packets are shown the sender has not sent any weather packets the latest 10 day(s).
| Time | Temp. | Humidity | Pressure | Rain* | Wind** | Luminosity | Snow |
|---|---|---|---|---|---|---|---|
| 1778007249 | 21.11° C | 55% | 1010.1 hPa | 0 mm | - | - | - |
| 1778006944 | 21.67° C | 52% | 1010.2 hPa | 0 mm | - | - | - |
| 1778006641 | 21.11° C | 56% | 1010.4 hPa | 0 mm | - | - | - |
| 1778006339 | 20.56° C | 53% | 1010.4 hPa | 0 mm | - | - | - |
| 1778006035 | 21.67° C | 53% | 1010.3 hPa | 0 mm | - | - | - |
| 1778005732 | 22.22° C | 51% | 1010.4 hPa | 0 mm | - | - | - |
| 1778005429 | 21.67° C | 52% | 1010.4 hPa | 0 mm | - | - | - |
| 1778005125 | 21.11° C | 55% | 1010.5 hPa | 0 mm | - | - | - |
| 1778004823 | 21.67° C | 53% | 1010.6 hPa | 0 mm | - | - | - |
| 1778004519 | 20.56° C | 54% | 1010.6 hPa | 0 mm | - | - | - |
| 1778004216 | 20.56° C | 55% | 1010.9 hPa | 0 mm | - | - | - |
| 1778003912 | 21.11° C | 55% | 1010.7 hPa | 0 mm | - | - | - |
| 1778003609 | 21.11° C | 55% | 1010.8 hPa | 0 mm | - | - | - |
| 1778003305 | 21.11° C | 57% | 1010.8 hPa | 0 mm | - | - | - |
| 1778003003 | 20.56° C | 56% | 1011.2 hPa | 0 mm | - | - | - |
| 1778002699 | 19.44° C | 59% | 1010.8 hPa | 0 mm | - | - | - |
| 1778002395 | 19.44° C | 60% | 1010.8 hPa | 0 mm | - | - | - |
| 1778002093 | 19.44° C | 59% | 1011.2 hPa | 0 mm | - | - | - |
| 1778001790 | 20° C | 59% | 1011.2 hPa | 0 mm | - | - | - |
| 1778001485 | 20° C | 60% | 1010.9 hPa | 0 mm | - | - | - |
| 1778001181 | 20° C | 59% | 1011.1 hPa | 0 mm | - | - | - |
| 1778000878 | 19.44° C | 59% | 1011.1 hPa | 0 mm | - | - | - |
| 1778000576 | 18.89° C | 60% | 1010.9 hPa | 0 mm | - | - | - |
| 1778000276 | 19.44° C | 58% | 1010.8 hPa | 0 mm | - | - | - |
| 1777999972 | 18.89° C | 64% | 1010.9 hPa | 0 mm | - | - | - |
* Rain latest hour (hover to see other rain measurements)
** Current wind speed in m/s (hover to see current wind gust speed)